createdAt,value
2023-05-09T00:00:07.980Z,9.713164
2023-05-09T00:01:07.993Z,9.713302
2023-05-09T00:02:07.998Z,9.712722
2023-05-09T00:03:08.068Z,9.712532
2023-05-09T00:04:08.023Z,9.712463
2023-05-09T00:05:07.948Z,9.712788
2023-05-09T00:06:08.193Z,9.712426
2023-05-09T00:07:07.930Z,9.712167
2023-05-09T00:08:07.930Z,9.712635
2023-05-09T00:09:07.928Z,9.712788
2023-05-09T00:10:08.009Z,9.712399
2023-05-09T00:11:07.905Z,9.712271
2023-05-09T00:12:07.913Z,9.712055
2023-05-09T00:13:07.937Z,9.712088
2023-05-09T00:14:07.880Z,9.712161
2023-05-09T00:15:07.872Z,9.712308
2023-05-09T00:16:07.875Z,9.712377
2023-05-09T00:17:07.855Z,9.712252
2023-05-09T00:18:07.849Z,9.712078
2023-05-09T00:19:07.866Z,9.712170
2023-05-09T00:20:07.831Z,9.712699
2023-05-09T00:24:09.107Z,9.712271
2023-05-09T00:25:09.028Z,9.712059
2023-05-09T00:26:09.119Z,9.711939
2023-05-09T00:27:09.024Z,9.711720
2023-05-09T00:28:09.015Z,9.711769
2023-05-09T00:29:08.999Z,9.711769
2023-05-09T00:30:09.019Z,9.711741
2023-05-09T00:31:09.001Z,9.711707
2023-05-09T00:32:09.042Z,9.711744
2023-05-09T00:33:09.045Z,9.711732
2023-05-09T00:34:08.967Z,9.711724
2023-05-09T00:35:08.964Z,9.711683
2023-05-09T00:36:08.992Z,9.711708
2023-05-09T00:37:08.952Z,9.711751
2023-05-09T00:38:08.955Z,9.711739
2023-05-09T00:39:08.929Z,9.711754
2023-05-09T00:40:08.916Z,9.711677
2023-05-09T00:41:08.921Z,9.711666
2023-05-09T00:42:09.008Z,9.711661
2023-05-09T00:43:08.907Z,9.711664
2023-05-09T00:44:08.910Z,9.711596
2023-05-09T00:45:08.882Z,9.711644
2023-05-09T00:46:08.902Z,9.711696
2023-05-09T00:47:08.901Z,9.711727
2023-05-09T00:48:08.863Z,9.711745
2023-05-09T00:49:08.868Z,9.711759
2023-05-09T00:50:08.854Z,9.711740
2023-05-09T00:51:08.833Z,9.711709
2023-05-09T00:52:08.828Z,9.711779
2023-05-09T00:53:08.820Z,9.711756
2023-05-09T00:54:09.340Z,9.711806
2023-05-09T00:55:09.799Z,9.711763
2023-05-09T00:56:08.791Z,9.711787
2023-05-09T00:57:08.788Z,9.711830
2023-05-09T00:58:08.886Z,9.711847
2023-05-09T00:59:08.775Z,9.711763
2023-05-09T01:00:08.762Z,9.711804
2023-05-09T01:01:08.823Z,9.711726
2023-05-09T01:02:08.752Z,9.711743
2023-05-09T01:03:08.840Z,9.711649
2023-05-09T01:04:08.741Z,9.711675
2023-05-09T01:05:08.726Z,9.711737
2023-05-09T01:06:08.744Z,9.711801
2023-05-09T01:07:08.717Z,9.711877
2023-05-09T01:08:08.707Z,9.711999
2023-05-09T01:09:08.718Z,9.711782
2023-05-09T01:10:08.691Z,9.711804
2023-05-09T01:11:08.756Z,9.711917
2023-05-09T01:12:08.671Z,9.712009
2023-05-09T01:13:08.737Z,9.711775
2023-05-09T01:14:08.755Z,9.711950
2023-05-09T01:15:08.650Z,9.711822
2023-05-09T01:16:08.767Z,9.712090
2023-05-09T01:17:08.627Z,9.711894
2023-05-09T01:18:08.710Z,9.711995
2023-05-09T01:19:08.616Z,9.711699
2023-05-09T01:20:08.620Z,9.711967
2023-05-09T01:21:08.607Z,9.711722
2023-05-09T01:22:08.592Z,9.711631
2023-05-09T01:23:08.582Z,9.711704
2023-05-09T01:24:09.582Z,9.711858
2023-05-09T01:25:08.575Z,9.711872
2023-05-09T01:26:08.577Z,9.711848
2023-05-09T01:27:08.548Z,9.711806
2023-05-09T01:28:08.546Z,9.711826
2023-05-09T01:29:08.536Z,9.711786
2023-05-09T01:30:09.513Z,9.711790
2023-05-09T01:31:08.555Z,9.711751
2023-05-09T01:32:09.407Z,9.711699
2023-05-09T01:33:08.572Z,9.711761
2023-05-09T01:34:08.591Z,9.711861
2023-05-09T01:35:08.500Z,9.711810
2023-05-09T01:36:08.469Z,9.711736
2023-05-09T01:37:09.528Z,9.711704
2023-05-09T01:38:08.461Z,9.711573
2023-05-09T01:39:08.480Z,9.711722
2023-05-09T01:40:08.514Z,9.711683
2023-05-09T01:41:08.456Z,9.711801
2023-05-09T01:42:08.447Z,9.711777
2023-05-09T01:43:08.412Z,9.711747
2023-05-09T01:44:09.493Z,9.711706
2023-05-09T01:45:08.408Z,9.711642
2023-05-09T01:46:09.521Z,9.711626
2023-05-09T01:47:08.436Z,9.711628
2023-05-09T01:48:08.473Z,9.711653
2023-05-09T01:49:08.375Z,9.711636
2023-05-09T01:50:08.387Z,9.711637
2023-05-09T01:51:08.385Z,9.711652
2023-05-09T01:52:08.367Z,9.711639
2023-05-09T01:53:08.351Z,9.711679
2023-05-09T01:54:08.352Z,9.711658
2023-05-09T01:55:08.336Z,9.711631
2023-05-09T01:56:08.332Z,9.711667
2023-05-09T01:57:08.311Z,9.711711
2023-05-09T01:58:08.316Z,9.711757
2023-05-09T01:59:08.311Z,9.711685
2023-05-09T02:00:08.299Z,9.711674
2023-05-09T02:01:08.318Z,9.711605
2023-05-09T02:02:08.423Z,9.711650
2023-05-09T02:03:08.328Z,9.711587
2023-05-09T02:04:08.257Z,9.711744
2023-05-09T02:05:08.266Z,9.711555
2023-05-09T02:06:08.254Z,9.711484
2023-05-09T02:07:08.239Z,9.711621
2023-05-09T02:08:08.232Z,9.711580
2023-05-09T02:09:08.226Z,9.711543
2023-05-09T02:10:08.223Z,9.711732
2023-05-09T02:11:08.207Z,9.711679
2023-05-09T02:12:08.200Z,9.711730
2023-05-09T02:13:08.268Z,9.711705
2023-05-09T02:14:08.916Z,9.711679
2023-05-09T02:15:08.177Z,9.711836
2023-05-09T02:16:08.235Z,9.711747
2023-05-09T02:17:08.154Z,9.711757
2023-05-09T02:18:08.252Z,9.711835
2023-05-09T02:19:08.147Z,9.711796
2023-05-09T02:20:08.139Z,9.711744
2023-05-09T02:21:08.202Z,9.711882
2023-05-09T02:22:08.129Z,9.711710
2023-05-09T02:23:08.116Z,9.711698
2023-05-09T02:24:08.167Z,9.711685
2023-05-09T02:25:10.026Z,9.711767
2023-05-09T02:26:08.093Z,9.711718
2023-05-09T02:27:08.097Z,9.711642
2023-05-09T02:28:08.076Z,9.711849
2023-05-09T02:29:08.058Z,9.711756
2023-05-09T02:30:08.043Z,9.711876
2023-05-09T02:31:08.046Z,9.711796
2023-05-09T02:32:08.119Z,9.711957
2023-05-09T02:33:08.055Z,9.711981
2023-05-09T02:34:08.118Z,9.711626
2023-05-09T02:35:08.012Z,9.711675
2023-05-09T02:36:08.011Z,9.711752
2023-05-09T02:37:08.005Z,9.712154
2023-05-09T02:38:07.991Z,9.711886
2023-05-09T02:39:07.989Z,9.711585
2023-05-09T02:40:07.964Z,9.711824
2023-05-09T02:41:08.930Z,9.711313
2023-05-09T02:42:07.962Z,9.711580
2023-05-09T02:43:07.944Z,9.712251
2023-05-09T02:44:07.935Z,9.711900
2023-05-09T02:45:07.968Z,9.711718
2023-05-09T02:46:07.959Z,9.711687
2023-05-09T02:47:07.918Z,9.711704
2023-05-09T02:48:08.944Z,9.711593
2023-05-09T02:49:10.108Z,9.711745
2023-05-09T02:50:07.987Z,9.711658
2023-05-09T02:51:07.882Z,9.711935
2023-05-09T02:52:07.886Z,9.711796
2023-05-09T02:53:07.899Z,9.711670
2023-05-09T02:54:07.873Z,9.711580
2023-05-09T02:55:07.854Z,9.711822
2023-05-09T02:56:07.843Z,9.711802
2023-05-09T02:57:07.833Z,9.711665
2023-05-09T02:58:14.105Z,9.711781
2023-05-09T02:59:09.836Z,9.711740
2023-05-09T03:00:07.813Z,9.711732
2023-05-09T03:01:07.808Z,9.711761
2023-05-09T03:02:07.798Z,9.711797
2023-05-09T03:03:08.065Z,9.711774
2023-05-09T03:04:07.787Z,9.711769
2023-05-09T03:05:07.790Z,9.711753
2023-05-09T03:06:07.868Z,9.711746
2023-05-09T03:07:07.819Z,9.711734
2023-05-09T03:08:07.759Z,9.711774
2023-05-09T03:09:07.731Z,9.711768
2023-05-09T03:10:07.728Z,9.711780
2023-05-09T03:11:07.721Z,9.711751
2023-05-09T03:12:08.436Z,9.711784
2023-05-09T03:13:07.736Z,9.711767
2023-05-09T03:14:07.704Z,9.711759
2023-05-09T03:15:07.688Z,9.711741
2023-05-09T03:16:07.716Z,9.711739
2023-05-09T03:17:07.690Z,9.711744
2023-05-09T03:18:07.739Z,9.711758
2023-05-09T03:19:07.692Z,9.711778
2023-05-09T03:20:07.729Z,9.711779
2023-05-09T03:21:07.646Z,9.711780
2023-05-09T03:22:07.756Z,9.711761
2023-05-09T03:23:07.632Z,9.711753
2023-05-09T03:24:07.710Z,9.711741
2023-05-09T03:25:07.654Z,9.711729
2023-05-09T03:26:07.614Z,9.711714
2023-05-09T03:27:07.603Z,9.711733
2023-05-09T03:28:07.588Z,9.711728
2023-05-09T03:29:07.597Z,9.711706
2023-05-09T03:30:07.569Z,9.711711
2023-05-09T03:31:07.583Z,9.711718
2023-05-09T03:32:07.586Z,9.711723
2023-05-09T03:33:07.595Z,9.711719
2023-05-09T03:34:07.554Z,9.711706
2023-05-09T03:35:07.529Z,9.711680
2023-05-09T03:36:07.530Z,9.711693
2023-05-09T03:37:07.525Z,9.711706
2023-05-09T03:38:07.622Z,9.711734
2023-05-09T03:39:07.514Z,9.711652
2023-05-09T03:40:07.517Z,9.711650
2023-05-09T03:41:07.492Z,9.711641
2023-05-09T03:42:07.533Z,9.711667
2023-05-09T03:43:07.488Z,9.711652
2023-05-09T03:44:07.479Z,9.711810
2023-05-09T03:45:07.480Z,9.711687
2023-05-09T03:46:07.461Z,9.711698
2023-05-09T03:47:07.553Z,9.711822
2023-05-09T03:48:08.410Z,9.711681
2023-05-09T03:49:07.949Z,9.711570
2023-05-09T03:50:07.426Z,9.711527
2023-05-09T03:51:07.426Z,9.711613
2023-05-09T03:52:07.420Z,9.711528
2023-05-09T03:53:07.428Z,9.711657
2023-05-09T03:54:07.492Z,9.711787
2023-05-09T03:55:08.412Z,9.711729
2023-05-09T03:56:07.376Z,9.711732
2023-05-09T03:57:08.367Z,9.711709
2023-05-09T03:58:07.365Z,9.711613
2023-05-09T03:59:07.408Z,9.711710
2023-05-09T04:00:07.949Z,9.711703
2023-05-09T04:01:07.349Z,9.711771
2023-05-09T04:02:07.358Z,9.711701
2023-05-09T04:03:07.361Z,9.711715
2023-05-09T04:04:07.481Z,9.711715
2023-05-09T04:05:07.328Z,9.711471
2023-05-09T04:06:07.316Z,9.711697
2023-05-09T04:07:07.296Z,9.711824
2023-05-09T04:08:07.291Z,9.711878
2023-05-09T04:09:07.282Z,9.711741
2023-05-09T04:10:07.369Z,9.711763
2023-05-09T04:11:07.280Z,9.711637
2023-05-09T04:12:07.252Z,9.711720
2023-05-09T04:13:07.255Z,9.711769
2023-05-09T04:14:07.387Z,9.711745
2023-05-09T04:15:07.238Z,9.711861
2023-05-09T04:16:07.237Z,9.711831
2023-05-09T04:17:07.287Z,9.711690
2023-05-09T04:18:07.263Z,9.711709
2023-05-09T04:19:07.213Z,9.711735
2023-05-09T04:20:07.186Z,9.711759
2023-05-09T04:21:07.210Z,9.711892
2023-05-09T04:22:07.172Z,9.711813
2023-05-09T04:23:07.174Z,9.711725
2023-05-09T04:24:07.175Z,9.711712
2023-05-09T04:25:07.153Z,9.711739
2023-05-09T04:26:07.157Z,9.711747
2023-05-09T04:27:07.134Z,9.711692
2023-05-09T04:28:07.178Z,9.711657
2023-05-09T04:29:07.131Z,9.711709
2023-05-09T04:30:07.119Z,9.711698
2023-05-09T04:31:07.268Z,9.711658
2023-05-09T04:32:07.129Z,9.711624
2023-05-09T04:33:07.105Z,9.711630
2023-05-09T04:34:07.089Z,9.711668
2023-05-09T04:35:07.074Z,9.711669
2023-05-09T04:36:07.083Z,9.711681
2023-05-09T04:37:07.095Z,9.711640
2023-05-09T04:38:07.065Z,9.711654
2023-05-09T04:39:07.041Z,9.711676
2023-05-09T04:40:07.051Z,9.711671
2023-05-09T04:41:07.047Z,9.711667
2023-05-09T04:42:07.127Z,9.711683
2023-05-09T04:43:07.028Z,9.711718
2023-05-09T04:44:07.002Z,9.711691
2023-05-09T04:45:06.998Z,9.711761
2023-05-09T04:46:07.002Z,9.711702
2023-05-09T04:47:07.005Z,9.711673
2023-05-09T04:48:07.020Z,9.711623
2023-05-09T04:49:06.963Z,9.711730
2023-05-09T04:50:06.963Z,9.711724
2023-05-09T04:51:06.950Z,9.711676
2023-05-09T04:52:06.955Z,9.711726
2023-05-09T04:53:06.939Z,9.711753
2023-05-09T04:54:06.922Z,9.711690
2023-05-09T04:55:06.917Z,9.711585
2023-05-09T04:56:06.912Z,9.711756
2023-05-09T04:57:17.216Z,9.711724
2023-05-09T04:58:09.006Z,9.711627
2023-05-09T04:59:07.867Z,9.711631
2023-05-09T05:00:06.879Z,9.711654
2023-05-09T05:01:06.880Z,9.711682
2023-05-09T05:02:07.433Z,9.711512
2023-05-09T05:03:06.903Z,9.711687
2023-05-09T05:04:06.859Z,9.711594
2023-05-09T05:05:12.086Z,9.711568
2023-05-09T05:06:08.846Z,9.711549
2023-05-09T05:07:06.830Z,9.711592
2023-05-09T05:08:06.856Z,9.711535
2023-05-09T05:09:06.804Z,9.711669
2023-05-09T05:10:06.797Z,9.711603
2023-05-09T05:11:06.807Z,9.711623
2023-05-09T05:12:09.194Z,9.711584
2023-05-09T05:13:06.839Z,9.711461
2023-05-09T05:14:06.874Z,9.711570
2023-05-09T05:15:06.766Z,9.711379
2023-05-09T05:16:06.826Z,9.711393
2023-05-09T05:17:06.743Z,9.711585
2023-05-09T05:18:06.769Z,9.711634
2023-05-09T05:19:06.722Z,9.711597
2023-05-09T05:20:06.755Z,9.711436
2023-05-09T05:21:06.712Z,9.711396
2023-05-09T05:22:06.705Z,9.711666
2023-05-09T05:23:06.707Z,9.711679
2023-05-09T05:24:06.698Z,9.711687
2023-05-09T05:25:06.681Z,9.711568
2023-05-09T05:26:06.682Z,9.711587
2023-05-09T05:27:06.668Z,9.711704
2023-05-09T05:28:06.690Z,9.711748
2023-05-09T05:29:06.713Z,9.711782
2023-05-09T05:30:06.757Z,9.711792
2023-05-09T05:31:06.764Z,9.711781
2023-05-09T05:32:06.747Z,9.711779
2023-05-09T05:33:06.777Z,9.711706
2023-05-09T05:34:06.700Z,9.711688
2023-05-09T05:35:06.671Z,9.711653
2023-05-09T05:36:06.710Z,9.711705
2023-05-09T05:37:06.707Z,9.711740
2023-05-09T05:38:06.591Z,9.711740
2023-05-09T05:39:06.574Z,9.711689
2023-05-09T05:40:06.572Z,9.711727
2023-05-09T05:41:06.919Z,9.711737
2023-05-09T05:42:06.575Z,9.711693
2023-05-09T05:43:06.563Z,9.711615
2023-05-09T05:44:06.541Z,9.711678
2023-05-09T05:45:08.421Z,9.711730
2023-05-09T05:46:07.607Z,9.711704
2023-05-09T05:47:06.513Z,9.711697
2023-05-09T05:48:06.574Z,9.711769
2023-05-09T05:49:06.510Z,9.711811
2023-05-09T05:50:07.486Z,9.711772
2023-05-09T05:51:06.474Z,9.711739
2023-05-09T05:52:06.464Z,9.711679
2023-05-09T05:53:06.524Z,9.711786
2023-05-09T05:54:06.460Z,9.711810
2023-05-09T05:55:06.467Z,9.711797
2023-05-09T05:56:06.453Z,9.711806
2023-05-09T06:00:16.136Z,9.712642
2023-05-09T06:01:14.618Z,9.712402
2023-05-09T06:02:14.394Z,9.712436
2023-05-09T06:03:14.519Z,9.711842
2023-05-09T06:04:14.438Z,9.711735
2023-05-09T06:05:14.551Z,9.711749
2023-05-09T06:06:14.307Z,9.711763
2023-05-09T06:07:14.282Z,9.711871
2023-05-09T06:08:14.324Z,9.711882
2023-05-09T06:09:14.289Z,9.711947
2023-05-09T06:10:14.265Z,9.711900
2023-05-09T06:11:14.267Z,9.711842
2023-05-09T06:12:14.283Z,9.711861
2023-05-09T06:13:14.288Z,9.711851
2023-05-09T06:14:14.239Z,9.711887
2023-05-09T06:15:14.469Z,9.711976
2023-05-09T06:16:19.645Z,9.711852
2023-05-09T06:17:16.342Z,9.711697
2023-05-09T06:18:14.210Z,9.711784
2023-05-09T06:19:14.219Z,9.711903
2023-05-09T06:20:14.198Z,9.711984
2023-05-09T06:21:14.189Z,9.711800
2023-05-09T06:22:14.189Z,9.711894
2023-05-09T06:23:14.168Z,9.711967
2023-05-09T06:24:23.500Z,9.711879
2023-05-09T06:25:16.374Z,9.711704
2023-05-09T06:26:14.144Z,9.711624
2023-05-09T06:27:14.234Z,9.711885
2023-05-09T06:28:14.640Z,9.711788
2023-05-09T06:29:14.717Z,9.711723
2023-05-09T06:30:24.657Z,9.711802
2023-05-09T06:31:16.162Z,9.712149
2023-05-09T06:32:14.174Z,9.712255
2023-05-09T06:33:14.188Z,9.711960
2023-05-09T06:34:14.086Z,9.712065
2023-05-09T06:35:14.284Z,9.711724
2023-05-09T06:36:14.060Z,9.711921
2023-05-09T06:37:14.061Z,9.711804
2023-05-09T06:38:14.049Z,9.711783
2023-05-09T06:39:14.038Z,9.711643
2023-05-09T06:40:14.043Z,9.711300
2023-05-09T06:41:14.041Z,9.711579
2023-05-09T06:42:14.014Z,9.711497
2023-05-09T06:43:14.031Z,9.711415
2023-05-09T06:44:14.999Z,9.711472
2023-05-09T06:45:14.149Z,9.711396
2023-05-09T06:46:14.019Z,9.711529
2023-05-09T06:47:13.978Z,9.711565
2023-05-09T06:48:14.649Z,9.711523
2023-05-09T06:49:14.065Z,9.711787
2023-05-09T06:50:14.647Z,9.711766
2023-05-09T06:51:13.948Z,9.711794
2023-05-09T06:52:13.934Z,9.711761
2023-05-09T06:53:14.683Z,9.711804
2023-05-09T06:54:13.928Z,9.711873
2023-05-09T06:55:14.166Z,9.711762
2023-05-09T06:56:13.910Z,9.711797
2023-05-09T06:57:13.901Z,9.711841
2023-05-09T06:58:13.897Z,9.711900
2023-05-09T06:59:13.884Z,9.711905
2023-05-09T07:00:13.892Z,9.711800
2023-05-09T07:01:13.918Z,9.711729
2023-05-09T07:02:13.852Z,9.711743
2023-05-09T07:03:13.868Z,9.711592
2023-05-09T07:04:13.853Z,9.711616
2023-05-09T07:05:14.106Z,9.711375
2023-05-09T07:06:13.834Z,9.711451
2023-05-09T07:07:13.819Z,9.711704
2023-05-09T07:08:13.807Z,9.711675
2023-05-09T07:09:13.814Z,9.711964
2023-05-09T07:10:13.830Z,9.712141
2023-05-09T07:11:13.816Z,9.712105
2023-05-09T07:12:13.785Z,9.712011
2023-05-09T07:13:13.827Z,9.711958
2023-05-09T07:14:13.780Z,9.711841
2023-05-09T07:15:15.563Z,9.711877
2023-05-09T07:16:14.782Z,9.711961
2023-05-09T07:17:22.972Z,9.712046
2023-05-09T07:18:15.725Z,9.712219
2023-05-09T07:19:13.748Z,9.712104
2023-05-09T07:20:13.729Z,9.711970
2023-05-09T07:21:13.807Z,9.711724
2023-05-09T07:22:13.747Z,9.711749
2023-05-09T07:23:14.662Z,9.711767
2023-05-09T07:24:13.736Z,9.711745
2023-05-09T07:25:13.780Z,9.711758
2023-05-09T07:26:14.275Z,9.711701
2023-05-09T07:27:13.699Z,9.711699
2023-05-09T07:28:13.645Z,9.711708
2023-05-09T07:29:13.643Z,9.711658
2023-05-09T07:30:14.418Z,9.711628
2023-05-09T07:31:13.658Z,9.711674
2023-05-09T07:32:13.741Z,9.711732
2023-05-09T07:33:13.663Z,9.711672
2023-05-09T07:34:13.639Z,9.711664
2023-05-09T07:35:13.735Z,9.711652
2023-05-09T07:36:13.588Z,9.711624
2023-05-09T07:37:15.377Z,9.711612
2023-05-09T07:38:13.580Z,9.711657
2023-05-09T07:39:13.567Z,9.711670
2023-05-09T07:40:13.820Z,9.711697
2023-05-09T07:41:13.560Z,9.711681
2023-05-09T07:42:13.552Z,9.711679
2023-05-09T07:43:13.542Z,9.711666
2023-05-09T07:44:13.524Z,9.711671
2023-05-09T07:45:13.726Z,9.711667
2023-05-09T07:46:13.556Z,9.711701
2023-05-09T07:47:13.510Z,9.711702
2023-05-09T07:48:13.503Z,9.711721
2023-05-09T07:49:13.507Z,9.711752
2023-05-09T07:50:13.496Z,9.711712
2023-05-09T07:51:13.483Z,9.711681
2023-05-09T07:52:13.475Z,9.711650
2023-05-09T07:53:13.556Z,9.711734
2023-05-09T07:54:13.449Z,9.711665
2023-05-09T07:55:13.805Z,9.711642
2023-05-09T07:56:13.434Z,9.711609
2023-05-09T07:57:13.435Z,9.711643
2023-05-09T07:58:14.262Z,9.711591
2023-05-09T07:59:13.442Z,9.711617
2023-05-09T08:00:13.403Z,9.711577
2023-05-09T08:01:13.421Z,9.711588
2023-05-09T08:02:13.443Z,9.711598
2023-05-09T08:03:13.517Z,9.711567
2023-05-09T08:04:13.495Z,9.711487
2023-05-09T08:05:13.698Z,9.711646
2023-05-09T08:06:13.358Z,9.711790
2023-05-09T08:07:13.408Z,9.711688
2023-05-09T08:08:13.338Z,9.711930
2023-05-09T08:09:13.456Z,9.711906
2023-05-09T08:10:13.334Z,9.711967
2023-05-09T08:11:13.326Z,9.711491
2023-05-09T08:12:13.335Z,9.711992
2023-05-09T08:13:13.319Z,9.711874
2023-05-09T08:14:15.035Z,9.712117
2023-05-09T08:15:13.769Z,9.711893
2023-05-09T08:16:13.337Z,9.711695
2023-05-09T08:17:13.294Z,9.711611
2023-05-09T08:18:13.285Z,9.711596
2023-05-09T08:19:13.275Z,9.711263
2023-05-09T08:20:13.274Z,9.711614
2023-05-09T08:21:14.280Z,9.712054
2023-05-09T08:22:13.248Z,9.711551
2023-05-09T08:23:13.247Z,9.711642
2023-05-09T08:24:13.235Z,9.711829
2023-05-09T08:25:13.563Z,9.711450
2023-05-09T08:26:13.204Z,9.711391
2023-05-09T08:27:13.199Z,9.711423
2023-05-09T08:28:13.187Z,9.711604
2023-05-09T08:29:13.180Z,9.711690
2023-05-09T08:30:13.198Z,9.711828
2023-05-09T08:31:13.204Z,9.711727
2023-05-09T08:32:13.204Z,9.711483
2023-05-09T08:33:13.207Z,9.711370
2023-05-09T08:34:13.160Z,9.711505
2023-05-09T08:35:13.288Z,9.711956
2023-05-09T08:36:13.189Z,9.712202
2023-05-09T08:37:15.095Z,9.712140
2023-05-09T08:38:14.133Z,9.711881
2023-05-09T08:39:13.106Z,9.712599
2023-05-09T08:40:13.895Z,9.713217
2023-05-09T08:41:13.201Z,9.713121
2023-05-09T08:42:13.101Z,9.713160
2023-05-09T08:43:13.088Z,9.713130
2023-05-09T08:44:13.074Z,9.713434
2023-05-09T08:45:13.081Z,9.713241
2023-05-09T08:46:13.076Z,9.713140
2023-05-09T08:47:13.049Z,9.712717
2023-05-09T08:48:13.042Z,9.712767
2023-05-09T08:49:13.042Z,9.712103
2023-05-09T08:50:13.380Z,9.711718
2023-05-09T08:51:13.037Z,9.711896
2023-05-09T08:52:13.002Z,9.711842
2023-05-09T08:53:13.725Z,9.712077
2023-05-09T08:54:13.009Z,9.712427
2023-05-09T08:55:13.037Z,9.712427
2023-05-09T08:56:12.985Z,9.713022
2023-05-09T08:57:13.082Z,9.712106
2023-05-09T08:58:12.979Z,9.711474
2023-05-09T08:59:12.983Z,9.712493
2023-05-09T09:00:13.147Z,9.713103
2023-05-09T09:01:15.742Z,9.712792
2023-05-09T09:02:12.971Z,9.711737
2023-05-09T09:11:20.860Z,9.711500
2023-05-09T09:12:20.947Z,9.711639
2023-05-09T09:13:20.888Z,9.711604
2023-05-09T09:14:20.853Z,9.711480
2023-05-09T09:15:20.850Z,9.711967
2023-05-09T09:16:20.970Z,9.711990
2023-05-09T09:17:20.858Z,9.711888
2023-05-09T09:18:21.696Z,9.711882
2023-05-09T09:19:20.809Z,9.711748
2023-05-09T09:20:20.833Z,9.711611
2023-05-09T09:21:20.939Z,9.711616
2023-05-09T09:22:20.814Z,9.711608
2023-05-09T09:23:21.625Z,9.711608
2023-05-09T09:37:28.497Z,9.711536
2023-05-09T09:38:29.469Z,9.711642
2023-05-09T09:39:29.022Z,9.711518
2023-05-09T09:40:28.473Z,9.711443
2023-05-09T09:41:28.456Z,9.711477
2023-05-09T09:42:28.455Z,9.711446
2023-05-09T09:43:30.396Z,9.711427
2023-05-09T09:44:28.496Z,9.711385
2023-05-09T09:45:28.425Z,9.711466
2023-05-09T09:46:28.484Z,9.711658
2023-05-09T09:47:28.456Z,9.711625
2023-05-09T09:48:28.750Z,9.711619
2023-05-09T09:49:28.405Z,9.711603
2023-05-09T09:50:28.384Z,9.711587
2023-05-09T09:51:28.386Z,9.711541
2023-05-09T09:52:30.210Z,9.711508
2023-05-09T09:53:28.373Z,9.711575
2023-05-09T09:54:28.401Z,9.711550
2023-05-09T09:55:28.386Z,9.711578
2023-05-09T09:56:28.354Z,9.711523
2023-05-09T09:57:29.242Z,9.711533
2023-05-09T09:58:28.318Z,9.711572
2023-05-09T09:59:29.430Z,9.711533
2023-05-09T10:00:30.256Z,9.711513
2023-05-09T10:01:30.205Z,9.711488
2023-05-09T10:02:28.318Z,9.711518
2023-05-09T10:03:28.310Z,9.711542
2023-05-09T10:04:28.272Z,9.711529
2023-05-09T10:05:28.257Z,9.711387
2023-05-09T10:06:29.144Z,9.711575
2023-05-09T10:07:28.287Z,9.711432
2023-05-09T10:08:31.156Z,9.711535
2023-05-09T10:09:29.255Z,9.711539
2023-05-09T10:10:30.317Z,9.711577
2023-05-09T10:11:28.223Z,9.711585
2023-05-09T10:12:28.230Z,9.711468
2023-05-09T10:13:28.287Z,9.711661
2023-05-09T10:14:29.209Z,9.711572
2023-05-09T10:15:30.118Z,9.711560
2023-05-09T10:16:42.605Z,9.711613
2023-05-09T10:17:30.285Z,9.711659
2023-05-09T10:18:29.180Z,9.711608
2023-05-09T10:19:28.158Z,9.711526
2023-05-09T10:20:28.663Z,9.711646
2023-05-09T10:21:29.161Z,9.711513
2023-05-09T10:22:28.138Z,9.711577
2023-05-09T10:23:29.639Z,9.711705
2023-05-09T10:24:28.149Z,9.711697
2023-05-09T10:25:28.165Z,9.711646
2023-05-09T10:26:28.146Z,9.711576
2023-05-09T10:27:28.096Z,9.711524
2023-05-09T10:28:28.094Z,9.711616
2023-05-09T10:29:28.075Z,9.711567
2023-05-09T10:30:30.330Z,9.711686
2023-05-09T10:31:28.291Z,9.711803
2023-05-09T10:32:28.082Z,9.711751
2023-05-09T10:33:28.064Z,9.711702
2023-05-09T10:34:28.045Z,9.711553
2023-05-09T10:35:28.038Z,9.711614
2023-05-09T10:36:28.022Z,9.711565
2023-05-09T10:37:28.032Z,9.711581
2023-05-09T10:38:28.009Z,9.711552
2023-05-09T10:39:28.039Z,9.711637
2023-05-09T10:40:28.019Z,9.711594
2023-05-09T10:41:27.989Z,9.711474
2023-05-09T10:42:27.974Z,9.711418
2023-05-09T10:43:27.967Z,9.711421
2023-05-09T10:44:27.974Z,9.711447
2023-05-09T10:45:27.968Z,9.711419
2023-05-09T10:46:28.015Z,9.711557
2023-05-09T10:47:28.101Z,9.711604
2023-05-09T10:48:27.938Z,9.711605
2023-05-09T10:49:27.932Z,9.711475
2023-05-09T10:50:28.652Z,9.711304
2023-05-09T10:51:27.940Z,9.711586
2023-05-09T10:52:29.737Z,9.711649
2023-05-09T10:53:27.898Z,9.711634
2023-05-09T10:54:29.304Z,9.711418
2023-05-09T10:55:27.937Z,9.711600
2023-05-09T10:56:27.864Z,9.711720
2023-05-09T10:57:27.865Z,9.711698
2023-05-09T10:58:27.859Z,9.711718
2023-05-09T10:59:28.676Z,9.711905
2023-05-09T11:00:27.829Z,9.711784
2023-05-09T11:01:27.828Z,9.711994
2023-05-09T11:02:27.850Z,9.712157
2023-05-09T11:03:29.245Z,9.712155
2023-05-09T11:04:29.659Z,9.712191
2023-05-09T11:27:37.914Z,9.711918
2023-05-09T11:28:37.905Z,9.711575
2023-05-09T11:29:37.882Z,9.711774
2023-05-09T11:30:37.890Z,9.711531
2023-05-09T11:31:37.917Z,9.711583
2023-05-09T11:32:37.903Z,9.711821
2023-05-09T11:33:41.558Z,9.711861
2023-05-09T11:34:37.839Z,9.711983
2023-05-09T11:35:38.485Z,9.711911
2023-05-09T11:36:39.560Z,9.711839
2023-05-09T11:37:37.832Z,9.712007
2023-05-09T11:38:38.475Z,9.711890
2023-05-09T11:39:37.809Z,9.711700
2023-05-09T11:40:40.576Z,9.711673
2023-05-09T11:41:39.469Z,9.712004
2023-05-09T11:42:38.579Z,9.711897
2023-05-09T11:43:37.764Z,9.712278
2023-05-09T11:44:37.772Z,9.712002
2023-05-09T11:45:38.065Z,9.711806
2023-05-09T11:46:56.423Z,9.711596
2023-05-09T11:47:37.823Z,9.711878
2023-05-09T11:48:38.483Z,9.711883
2023-05-09T11:49:37.819Z,9.711793
2023-05-09T11:50:37.746Z,9.712133
2023-05-09T11:51:37.736Z,9.710482
2023-05-09T11:52:41.490Z,9.710477
2023-05-09T11:53:40.483Z,9.711163
2023-05-09T11:54:38.063Z,9.711254
2023-05-09T11:55:37.711Z,9.711356
2023-05-09T11:56:39.589Z,9.711489
2023-05-09T11:57:37.678Z,9.711519
2023-05-09T11:58:42.488Z,9.711486
2023-05-09T11:59:38.579Z,9.711614
2023-05-09T12:00:38.478Z,9.711478
2023-05-09T12:01:37.662Z,9.711624
2023-05-09T12:02:37.758Z,9.711607
2023-05-09T12:03:39.638Z,9.711539
2023-05-09T12:04:37.643Z,9.711570
2023-05-09T12:05:37.724Z,9.711656
2023-05-09T12:06:37.609Z,9.711666
2023-05-09T12:07:37.602Z,9.711689
2023-05-09T12:08:37.595Z,9.711727
2023-05-09T12:09:37.597Z,9.711700
2023-05-09T12:10:37.617Z,9.711681
2023-05-09T12:11:38.171Z,9.711720
2023-05-09T12:12:37.562Z,9.711763
2023-05-09T12:13:37.568Z,9.711700
2023-05-09T12:14:37.540Z,9.711685
2023-05-09T12:15:37.804Z,9.711672
2023-05-09T12:16:37.544Z,9.711720
2023-05-09T12:17:38.501Z,9.711717
2023-05-09T12:18:38.518Z,9.711728
2023-05-09T12:19:37.503Z,9.711703
2023-05-09T12:20:37.530Z,9.711690
2023-05-09T12:21:37.602Z,9.711671
2023-05-09T12:22:37.548Z,9.711657
2023-05-09T12:23:37.475Z,9.711679
2023-05-09T12:24:37.991Z,9.711720
2023-05-09T12:25:37.492Z,9.711723
2023-05-09T12:26:37.463Z,9.711695
2023-05-09T12:27:37.491Z,9.711697
2023-05-09T12:28:37.451Z,9.711715
2023-05-09T12:29:37.433Z,9.711676
2023-05-09T12:30:37.433Z,9.711669
2023-05-09T12:31:37.446Z,9.711671
2023-05-09T12:32:37.458Z,9.711669
2023-05-09T12:33:37.407Z,9.711670